Satu Mare, Romania
Current Conditions -  °F | °C
As of 10:00 PM on Friday 31 Oct 2014 (Local Time) from LRSM Reporting Station
Moderate Fog Moderate Fog  
Wind Chill: 36°   Ceiling: 100
Heat Index: 36°   Visibility: 0.03mi
Dew Point: 34°   Wind: 2mph
Humidity: 93%   Direction: 70°ENE
Pressure: 30.3"   Gusts: NA
Location:  47.79°N, 22.89°E
Report Text: LRSM 311900Z AUTO 07002KT 0050 R19/0250N FG VV001 02/01 Q1026
Loading
Personal Weather Stations






























Interactive Weather Map
Tropical Storm Tracking
New forecast layout! Learn more

10-Day Weather Forecast

Advertisements
Track Severe Weather on mobile